sensor_id;sensor_type;location;lat;lon;timestamp;temperature;humidity
23744;DHT22;12052;53.478;10.182;2022-08-30T00:01:08;16.10;99.90
23744;DHT22;12052;53.478;10.182;2022-08-30T00:03:37;16.10;99.90
23744;DHT22;12052;53.478;10.182;2022-08-30T00:06:06;16.10;99.90
23744;DHT22;12052;53.478;10.182;2022-08-30T00:08:33;16.10;99.90
23744;DHT22;12052;53.478;10.182;2022-08-30T00:10:59;16.10;99.90
23744;DHT22;12052;53.478;10.182;2022-08-30T00:13:26;16.10;99.90
23744;DHT22;12052;53.478;10.182;2022-08-30T00:15:52;16.10;99.90
23744;DHT22;12052;53.478;10.182;2022-08-30T00:18:18;16.10;99.90
23744;DHT22;12052;53.478;10.182;2022-08-30T00:20:46;16.10;99.90
23744;DHT22;12052;53.478;10.182;2022-08-30T00:23:12;16.10;99.90
23744;DHT22;12052;53.478;10.182;2022-08-30T00:25:38;16.10;99.90
23744;DHT22;12052;53.478;10.182;2022-08-30T00:28:04;16.20;99.90
23744;DHT22;12052;53.478;10.182;2022-08-30T00:30:30;16.20;99.90
23744;DHT22;12052;53.478;10.182;2022-08-30T00:32:56;16.20;99.90
23744;DHT22;12052;53.478;10.182;2022-08-30T00:35:22;16.20;99.90
23744;DHT22;12052;53.478;10.182;2022-08-30T00:37:47;16.30;99.90
23744;DHT22;12052;53.478;10.182;2022-08-30T00:40:15;16.30;99.90
23744;DHT22;12052;53.478;10.182;2022-08-30T00:42:42;16.30;99.90
23744;DHT22;12052;53.478;10.182;2022-08-30T00:45:20;16.20;99.90
23744;DHT22;12052;53.478;10.182;2022-08-30T00:47:46;16.20;99.90
23744;DHT22;12052;53.478;10.182;2022-08-30T00:50:15;16.30;99.90
23744;DHT22;12052;53.478;10.182;2022-08-30T00:52:45;16.30;99.90
23744;DHT22;12052;53.478;10.182;2022-08-30T00:55:12;16.30;99.90
23744;DHT22;12052;53.478;10.182;2022-08-30T00:57:39;16.30;99.90
23744;DHT22;12052;53.478;10.182;2022-08-30T01:00:06;16.30;99.90
23744;DHT22;12052;53.478;10.182;2022-08-30T01:02:33;16.30;99.90
23744;DHT22;12052;53.478;10.182;2022-08-30T01:05:00;16.30;99.90
23744;DHT22;12052;53.478;10.182;2022-08-30T01:07:26;16.20;99.90
23744;DHT22;12052;53.478;10.182;2022-08-30T01:09:53;16.20;99.90
23744;DHT22;12052;53.478;10.182;2022-08-30T01:12:19;16.10;99.90
23744;DHT22;12052;53.478;10.182;2022-08-30T01:14:44;16.10;99.90
23744;DHT22;12052;53.478;10.182;2022-08-30T01:17:10;16.10;99.90
23744;DHT22;12052;53.478;10.182;2022-08-30T01:19:53;16.10;99.90
23744;DHT22;12052;53.478;10.182;2022-08-30T01:24:45;16.10;99.90
23744;DHT22;12052;53.478;10.182;2022-08-30T01:27:14;16.10;99.90
23744;DHT22;12052;53.478;10.182;2022-08-30T01:29:40;16.10;99.90
23744;DHT22;12052;53.478;10.182;2022-08-30T01:32:21;16.10;99.90
23744;DHT22;12052;53.478;10.182;2022-08-30T01:34:48;16.10;99.90
23744;DHT22;12052;53.478;10.182;2022-08-30T01:37:22;16.10;99.90
23744;DHT22;12052;53.478;10.182;2022-08-30T01:39:49;16.10;99.90
23744;DHT22;12052;53.478;10.182;2022-08-30T01:42:15;16.10;99.90
23744;DHT22;12052;53.478;10.182;2022-08-30T01:44:43;16.20;99.90
23744;DHT22;12052;53.478;10.182;2022-08-30T01:47:09;16.20;99.90
23744;DHT22;12052;53.478;10.182;2022-08-30T01:49:35;16.20;99.90
23744;DHT22;12052;53.478;10.182;2022-08-30T01:52:02;16.20;99.90
23744;DHT22;12052;53.478;10.182;2022-08-30T01:54:32;16.10;99.90
23744;DHT22;12052;53.478;10.182;2022-08-30T01:56:58;16.20;99.90
23744;DHT22;12052;53.478;10.182;2022-08-30T01:59:23;16.20;99.90
23744;DHT22;12052;53.478;10.182;2022-08-30T02:01:49;16.20;99.90
23744;DHT22;12052;53.478;10.182;2022-08-30T02:04:15;16.20;99.90
23744;DHT22;12052;53.478;10.182;2022-08-30T02:06:41;16.20;99.90
23744;DHT22;12052;53.478;10.182;2022-08-30T02:09:09;16.30;99.90
23744;DHT22;12052;53.478;10.182;2022-08-30T02:11:34;16.30;99.90
23744;DHT22;12052;53.478;10.182;2022-08-30T02:14:00;16.30;99.90
23744;DHT22;12052;53.478;10.182;2022-08-30T02:16:26;16.30;99.90
23744;DHT22;12052;53.478;10.182;2022-08-30T02:18:53;16.30;99.90
23744;DHT22;12052;53.478;10.182;2022-08-30T02:21:20;16.30;99.90
23744;DHT22;12052;53.478;10.182;2022-08-30T02:23:46;16.20;99.90
23744;DHT22;12052;53.478;10.182;2022-08-30T02:26:13;16.20;99.90
23744;DHT22;12052;53.478;10.182;2022-08-30T02:28:39;16.20;99.90
23744;DHT22;12052;53.478;10.182;2022-08-30T02:31:05;16.20;99.90
23744;DHT22;12052;53.478;10.182;2022-08-30T02:33:30;16.20;99.90
23744;DHT22;12052;53.478;10.182;2022-08-30T02:35:56;16.20;99.90
23744;DHT22;12052;53.478;10.182;2022-08-30T02:38:22;16.20;99.90
23744;DHT22;12052;53.478;10.182;2022-08-30T02:40:49;16.20;99.90
23744;DHT22;12052;53.478;10.182;2022-08-30T02:43:15;16.20;99.90
23744;DHT22;12052;53.478;10.182;2022-08-30T02:45:41;16.20;99.90
23744;DHT22;12052;53.478;10.182;2022-08-30T02:48:06;16.10;99.90
23744;DHT22;12052;53.478;10.182;2022-08-30T02:50:32;16.10;99.90
23744;DHT22;12052;53.478;10.182;2022-08-30T02:52:58;16.10;99.90
23744;DHT22;12052;53.478;10.182;2022-08-30T02:55:23;16.00;99.90
23744;DHT22;12052;53.478;10.182;2022-08-30T02:57:49;16.00;99.90
23744;DHT22;12052;53.478;10.182;2022-08-30T03:00:17;16.00;99.90
23744;DHT22;12052;53.478;10.182;2022-08-30T03:02:43;16.00;99.90
23744;DHT22;12052;53.478;10.182;2022-08-30T03:05:11;15.90;99.90
23744;DHT22;12052;53.478;10.182;2022-08-30T03:07:38;16.00;99.90
23744;DHT22;12052;53.478;10.182;2022-08-30T03:10:04;15.90;99.90
23744;DHT22;12052;53.478;10.182;2022-08-30T03:12:30;16.00;99.90
23744;DHT22;12052;53.478;10.182;2022-08-30T03:14:57;16.00;99.90
23744;DHT22;12052;53.478;10.182;2022-08-30T03:17:24;16.00;99.90
23744;DHT22;12052;53.478;10.182;2022-08-30T03:19:49;16.00;99.90
23744;DHT22;12052;53.478;10.182;2022-08-30T03:22:15;16.00;99.90
23744;DHT22;12052;53.478;10.182;2022-08-30T03:24:41;16.00;99.90
23744;DHT22;12052;53.478;10.182;2022-08-30T03:27:07;16.00;99.90
23744;DHT22;12052;53.478;10.182;2022-08-30T03:29:33;15.90;99.90
23744;DHT22;12052;53.478;10.182;2022-08-30T03:31:59;16.00;99.90
23744;DHT22;12052;53.478;10.182;2022-08-30T03:34:25;16.00;99.90
23744;DHT22;12052;53.478;10.182;2022-08-30T03:36:53;16.00;99.90
23744;DHT22;12052;53.478;10.182;2022-08-30T03:39:19;16.10;99.90
23744;DHT22;12052;53.478;10.182;2022-08-30T03:41:45;16.10;99.90
23744;DHT22;12052;53.478;10.182;2022-08-30T03:44:11;16.10;99.90
23744;DHT22;12052;53.478;10.182;2022-08-30T03:46:37;16.10;99.90
23744;DHT22;12052;53.478;10.182;2022-08-30T03:49:03;16.10;99.90
23744;DHT22;12052;53.478;10.182;2022-08-30T03:51:29;16.20;99.90
23744;DHT22;12052;53.478;10.182;2022-08-30T03:53:55;16.10;99.90
23744;DHT22;12052;53.478;10.182;2022-08-30T03:56:21;16.10;99.90
23744;DHT22;12052;53.478;10.182;2022-08-30T03:58:47;16.20;99.90
23744;DHT22;12052;53.478;10.182;2022-08-30T04:01:12;16.10;99.90
23744;DHT22;12052;53.478;10.182;2022-08-30T04:03:38;16.10;99.90
23744;DHT22;12052;53.478;10.182;2022-08-30T04:06:04;16.10;99.90
23744;DHT22;12052;53.478;10.182;2022-08-30T04:08:30;16.10;99.90
23744;DHT22;12052;53.478;10.182;2022-08-30T04:10:56;16.10;99.90
23744;DHT22;12052;53.478;10.182;2022-08-30T04:13:23;16.10;99.90
23744;DHT22;12052;53.478;10.182;2022-08-30T04:15:49;16.10;99.90
23744;DHT22;12052;53.478;10.182;2022-08-30T04:18:15;16.10;99.90
23744;DHT22;12052;53.478;10.182;2022-08-30T04:20:40;16.10;99.90
23744;DHT22;12052;53.478;10.182;2022-08-30T04:23:06;16.10;99.90
23744;DHT22;12052;53.478;10.182;2022-08-30T04:25:33;16.20;99.90
23744;DHT22;12052;53.478;10.182;2022-08-30T04:28:00;16.10;99.90
23744;DHT22;12052;53.478;10.182;2022-08-30T04:30:26;16.10;99.90
23744;DHT22;12052;53.478;10.182;2022-08-30T04:32:51;16.10;99.90
23744;DHT22;12052;53.478;10.182;2022-08-30T04:35:17;16.10;99.90
23744;DHT22;12052;53.478;10.182;2022-08-30T04:37:42;16.00;99.90
23744;DHT22;12052;53.478;10.182;2022-08-30T04:40:08;16.00;99.90
23744;DHT22;12052;53.478;10.182;2022-08-30T04:42:35;16.00;99.90
23744;DHT22;12052;53.478;10.182;2022-08-30T04:45:05;16.00;99.90
23744;DHT22;12052;53.478;10.182;2022-08-30T04:47:31;16.00;99.90
23744;DHT22;12052;53.478;10.182;2022-08-30T04:49:58;15.90;99.90
23744;DHT22;12052;53.478;10.182;2022-08-30T04:52:24;15.90;99.90
23744;DHT22;12052;53.478;10.182;2022-08-30T04:54:54;15.90;99.90
23744;DHT22;12052;53.478;10.182;2022-08-30T04:57:27;15.90;99.90
23744;DHT22;12052;53.478;10.182;2022-08-30T04:59:56;15.80;99.90
23744;DHT22;12052;53.478;10.182;2022-08-30T05:02:48;15.90;99.90
23744;DHT22;12052;53.478;10.182;2022-08-30T05:05:13;15.90;99.90
23744;DHT22;12052;53.478;10.182;2022-08-30T05:07:58;15.90;99.90
23744;DHT22;12052;53.478;10.182;2022-08-30T05:10:24;15.90;99.90
23744;DHT22;12052;53.478;10.182;2022-08-30T05:12:52;15.90;99.90
23744;DHT22;12052;53.478;10.182;2022-08-30T05:15:18;15.90;99.90
23744;DHT22;12052;53.478;10.182;2022-08-30T05:17:44;15.90;99.90
23744;DHT22;12052;53.478;10.182;2022-08-30T05:20:10;16.00;99.90
23744;DHT22;12052;53.478;10.182;2022-08-30T05:22:39;16.00;99.90
23744;DHT22;12052;53.478;10.182;2022-08-30T05:25:06;16.00;99.90
23744;DHT22;12052;53.478;10.182;2022-08-30T05:27:31;16.00;99.90
23744;DHT22;12052;53.478;10.182;2022-08-30T05:29:57;16.00;99.90
23744;DHT22;12052;53.478;10.182;2022-08-30T05:32:23;16.10;99.90
23744;DHT22;12052;53.478;10.182;2022-08-30T05:34:49;16.10;99.90
23744;DHT22;12052;53.478;10.182;2022-08-30T05:37:14;16.10;99.90
23744;DHT22;12052;53.478;10.182;2022-08-30T05:39:40;16.20;99.90
23744;DHT22;12052;53.478;10.182;2022-08-30T05:42:05;16.20;99.90
23744;DHT22;12052;53.478;10.182;2022-08-30T05:44:31;16.20;99.90
23744;DHT22;12052;53.478;10.182;2022-08-30T05:46:57;16.30;99.90
23744;DHT22;12052;53.478;10.182;2022-08-30T05:49:22;16.30;99.90
23744;DHT22;12052;53.478;10.182;2022-08-30T05:51:48;16.30;99.90
23744;DHT22;12052;53.478;10.182;2022-08-30T05:54:14;16.40;99.90
23744;DHT22;12052;53.478;10.182;2022-08-30T05:56:43;16.40;99.90
23744;DHT22;12052;53.478;10.182;2022-08-30T05:59:10;16.40;99.90
23744;DHT22;12052;53.478;10.182;2022-08-30T06:01:43;16.40;99.90
23744;DHT22;12052;53.478;10.182;2022-08-30T06:04:10;16.40;99.90
23744;DHT22;12052;53.478;10.182;2022-08-30T06:06:37;16.50;99.90
23744;DHT22;12052;53.478;10.182;2022-08-30T06:09:04;16.50;99.90
23744;DHT22;12052;53.478;10.182;2022-08-30T06:11:31;16.50;99.90
23744;DHT22;12052;53.478;10.182;2022-08-30T06:13:57;16.50;99.90
23744;DHT22;12052;53.478;10.182;2022-08-30T06:16:25;16.60;99.90
23744;DHT22;12052;53.478;10.182;2022-08-30T06:18:51;16.60;99.90
23744;DHT22;12052;53.478;10.182;2022-08-30T06:21:25;16.60;99.90
23744;DHT22;12052;53.478;10.182;2022-08-30T06:23:53;16.60;99.90
23744;DHT22;12052;53.478;10.182;2022-08-30T06:26:19;16.60;99.90
23744;DHT22;12052;53.478;10.182;2022-08-30T06:28:44;16.70;99.90
23744;DHT22;12052;53.478;10.182;2022-08-30T06:31:12;16.80;99.90
23744;DHT22;12052;53.478;10.182;2022-08-30T06:33:38;16.80;99.90
23744;DHT22;12052;53.478;10.182;2022-08-30T06:36:05;16.90;99.90
23744;DHT22;12052;53.478;10.182;2022-08-30T06:38:31;17.00;99.90
23744;DHT22;12052;53.478;10.182;2022-08-30T06:40:56;17.00;99.90
23744;DHT22;12052;53.478;10.182;2022-08-30T06:43:22;17.10;99.90
23744;DHT22;12052;53.478;10.182;2022-08-30T06:45:48;17.10;99.90
23744;DHT22;12052;53.478;10.182;2022-08-30T06:48:13;17.10;99.90
23744;DHT22;12052;53.478;10.182;2022-08-30T06:50:39;17.20;99.90
23744;DHT22;12052;53.478;10.182;2022-08-30T06:53:10;17.20;99.90
23744;DHT22;12052;53.478;10.182;2022-08-30T06:55:36;17.30;99.90
23744;DHT22;12052;53.478;10.182;2022-08-30T06:58:03;17.30;99.90
23744;DHT22;12052;53.478;10.182;2022-08-30T07:00:29;17.40;99.90
23744;DHT22;12052;53.478;10.182;2022-08-30T07:02:55;17.40;99.90
23744;DHT22;12052;53.478;10.182;2022-08-30T07:05:21;17.60;99.90
23744;DHT22;12052;53.478;10.182;2022-08-30T07:07:49;17.60;99.90
23744;DHT22;12052;53.478;10.182;2022-08-30T07:10:15;17.70;99.90
23744;DHT22;12052;53.478;10.182;2022-08-30T07:23:30;17.90;99.90
23744;DHT22;12052;53.478;10.182;2022-08-30T07:25:57;17.90;99.90
23744;DHT22;12052;53.478;10.182;2022-08-30T07:28:32;17.90;99.90
23744;DHT22;12052;53.478;10.182;2022-08-30T07:31:05;18.00;99.90
23744;DHT22;12052;53.478;10.182;2022-08-30T07:33:31;18.00;99.90
23744;DHT22;12052;53.478;10.182;2022-08-30T07:35:57;18.10;99.90
23744;DHT22;12052;53.478;10.182;2022-08-30T07:38:24;18.00;99.90
23744;DHT22;12052;53.478;10.182;2022-08-30T07:40:50;18.10;99.90
23744;DHT22;12052;53.478;10.182;2022-08-30T07:43:16;18.10;99.90
23744;DHT22;12052;53.478;10.182;2022-08-30T07:45:41;18.30;99.90
23744;DHT22;12052;53.478;10.182;2022-08-30T07:48:07;18.30;99.90
23744;DHT22;12052;53.478;10.182;2022-08-30T07:50:36;18.40;99.90
23744;DHT22;12052;53.478;10.182;2022-08-30T07:53:01;18.40;99.90
23744;DHT22;12052;53.478;10.182;2022-08-30T07:55:27;18.40;99.90
23744;DHT22;12052;53.478;10.182;2022-08-30T07:57:53;18.50;99.90
23744;DHT22;12052;53.478;10.182;2022-08-30T08:00:19;18.60;99.90
23744;DHT22;12052;53.478;10.182;2022-08-30T08:02:45;18.70;99.90
23744;DHT22;12052;53.478;10.182;2022-08-30T08:05:10;18.80;99.90
23744;DHT22;12052;53.478;10.182;2022-08-30T08:07:36;18.90;99.90
23744;DHT22;12052;53.478;10.182;2022-08-30T08:10:02;19.00;99.90
23744;DHT22;12052;53.478;10.182;2022-08-30T08:12:28;19.00;99.90
23744;DHT22;12052;53.478;10.182;2022-08-30T08:14:54;19.20;99.90
23744;DHT22;12052;53.478;10.182;2022-08-30T08:17:19;19.30;99.90
23744;DHT22;12052;53.478;10.182;2022-08-30T08:19:45;19.40;99.90
23744;DHT22;12052;53.478;10.182;2022-08-30T08:22:11;19.50;99.90
23744;DHT22;12052;53.478;10.182;2022-08-30T08:24:36;19.70;99.90
23744;DHT22;12052;53.478;10.182;2022-08-30T08:27:02;19.70;99.90
23744;DHT22;12052;53.478;10.182;2022-08-30T08:29:28;19.80;99.90
23744;DHT22;12052;53.478;10.182;2022-08-30T08:31:54;19.80;99.90
23744;DHT22;12052;53.478;10.182;2022-08-30T08:34:21;19.80;99.90
23744;DHT22;12052;53.478;10.182;2022-08-30T08:36:49;19.80;99.90
23744;DHT22;12052;53.478;10.182;2022-08-30T08:39:16;19.90;99.90
23744;DHT22;12052;53.478;10.182;2022-08-30T08:44:59;19.80;99.90
23744;DHT22;12052;53.478;10.182;2022-08-30T08:47:39;19.90;99.90
23744;DHT22;12052;53.478;10.182;2022-08-30T08:50:18;19.90;99.90
23744;DHT22;12052;53.478;10.182;2022-08-30T08:53:06;20.00;99.90
23744;DHT22;12052;53.478;10.182;2022-08-30T08:55:53;20.10;99.90
23744;DHT22;12052;53.478;10.182;2022-08-30T08:58:24;20.10;99.90
23744;DHT22;12052;53.478;10.182;2022-08-30T09:00:50;20.20;99.90
23744;DHT22;12052;53.478;10.182;2022-08-30T09:03:20;20.20;99.90
23744;DHT22;12052;53.478;10.182;2022-08-30T09:05:46;20.20;99.90
23744;DHT22;12052;53.478;10.182;2022-08-30T09:08:14;20.30;99.90
23744;DHT22;12052;53.478;10.182;2022-08-30T09:11:04;20.30;99.90
23744;DHT22;12052;53.478;10.182;2022-08-30T09:13:28;20.30;99.90
23744;DHT22;12052;53.478;10.182;2022-08-30T09:15:55;20.30;99.90
23744;DHT22;12052;53.478;10.182;2022-08-30T09:21:07;20.20;99.90
23744;DHT22;12052;53.478;10.182;2022-08-30T09:23:33;20.10;99.90
23744;DHT22;12052;53.478;10.182;2022-08-30T09:26:06;20.10;99.90
23744;DHT22;12052;53.478;10.182;2022-08-30T09:28:47;20.00;99.90
23744;DHT22;12052;53.478;10.182;2022-08-30T09:31:23;20.00;99.90
23744;DHT22;12052;53.478;10.182;2022-08-30T09:33:58;19.90;99.90
23744;DHT22;12052;53.478;10.182;2022-08-30T09:36:27;19.90;99.90
23744;DHT22;12052;53.478;10.182;2022-08-30T09:39:02;19.90;99.90
23744;DHT22;12052;53.478;10.182;2022-08-30T09:44:13;19.90;99.90
23744;DHT22;12052;53.478;10.182;2022-08-30T09:47:06;19.90;99.90
23744;DHT22;12052;53.478;10.182;2022-08-30T09:49:42;19.90;99.90
23744;DHT22;12052;53.478;10.182;2022-08-30T10:00:20;19.80;99.90
23744;DHT22;12052;53.478;10.182;2022-08-30T10:08:00;19.80;99.90
23744;DHT22;12052;53.478;10.182;2022-08-30T10:10:36;19.80;99.90
23744;DHT22;12052;53.478;10.182;2022-08-30T10:15:54;19.80;99.90
23744;DHT22;12052;53.478;10.182;2022-08-30T10:21:39;19.80;99.90
23744;DHT22;12052;53.478;10.182;2022-08-30T10:24:13;19.80;99.90
23744;DHT22;12052;53.478;10.182;2022-08-30T10:26:49;19.90;99.90
23744;DHT22;12052;53.478;10.182;2022-08-30T10:29:32;19.90;99.90
23744;DHT22;12052;53.478;10.182;2022-08-30T10:32:05;19.90;99.90
23744;DHT22;12052;53.478;10.182;2022-08-30T10:34:38;19.90;99.90
23744;DHT22;12052;53.478;10.182;2022-08-30T10:37:25;19.90;99.90
23744;DHT22;12052;53.478;10.182;2022-08-30T10:40:18;19.90;99.90
23744;DHT22;12052;53.478;10.182;2022-08-30T10:43:12;19.90;99.90
23744;DHT22;12052;53.478;10.182;2022-08-30T10:45:42;19.90;99.90
23744;DHT22;12052;53.478;10.182;2022-08-30T10:48:29;19.90;99.90
23744;DHT22;12052;53.478;10.182;2022-08-30T10:51:01;19.90;99.90
23744;DHT22;12052;53.478;10.182;2022-08-30T10:53:39;19.90;99.90
23744;DHT22;12052;53.478;10.182;2022-08-30T10:56:09;19.90;99.90
23744;DHT22;12052;53.478;10.182;2022-08-30T10:58:39;19.90;99.90
23744;DHT22;12052;53.478;10.182;2022-08-30T11:15:33;20.10;99.90
23744;DHT22;12052;53.478;10.182;2022-08-30T11:20:48;20.30;99.90
23744;DHT22;12052;53.478;10.182;2022-08-30T11:23:23;20.40;99.90
23744;DHT22;12052;53.478;10.182;2022-08-30T11:25:54;20.60;99.90
23744;DHT22;12052;53.478;10.182;2022-08-30T11:39:02;21.50;99.90
23744;DHT22;12052;53.478;10.182;2022-08-30T11:41:33;21.70;99.90
23744;DHT22;12052;53.478;10.182;2022-08-30T11:46:53;22.00;99.90
23744;DHT22;12052;53.478;10.182;2022-08-30T11:57:36;22.30;99.90
23744;DHT22;12052;53.478;10.182;2022-08-30T12:00:06;22.30;99.90
23744;DHT22;12052;53.478;10.182;2022-08-30T12:02:43;22.40;99.90
23744;DHT22;12052;53.478;10.182;2022-08-30T12:08:11;22.60;99.90
23744;DHT22;12052;53.478;10.182;2022-08-30T12:10:51;22.40;99.90
23744;DHT22;12052;53.478;10.182;2022-08-30T12:18:54;21.90;99.90
23744;DHT22;12052;53.478;10.182;2022-08-30T12:21:27;21.70;99.90
23744;DHT22;12052;53.478;10.182;2022-08-30T12:24:01;21.50;99.90
23744;DHT22;12052;53.478;10.182;2022-08-30T12:26:28;21.70;99.90
23744;DHT22;12052;53.478;10.182;2022-08-30T12:29:25;21.80;99.90
23744;DHT22;12052;53.478;10.182;2022-08-30T12:32:05;21.80;99.90
23744;DHT22;12052;53.478;10.182;2022-08-30T12:37:28;21.70;99.90
23744;DHT22;12052;53.478;10.182;2022-08-30T12:42:36;21.40;99.90
23744;DHT22;12052;53.478;10.182;2022-08-30T12:45:06;21.30;99.90
23744;DHT22;12052;53.478;10.182;2022-08-30T12:47:42;21.30;99.90
23744;DHT22;12052;53.478;10.182;2022-08-30T12:50:14;21.30;99.90
23744;DHT22;12052;53.478;10.182;2022-08-30T12:52:43;21.30;99.90
23744;DHT22;12052;53.478;10.182;2022-08-30T12:55:15;21.30;99.90
23744;DHT22;12052;53.478;10.182;2022-08-30T12:57:53;21.30;99.90
23744;DHT22;12052;53.478;10.182;2022-08-30T13:00:39;21.30;99.90
23744;DHT22;12052;53.478;10.182;2022-08-30T13:03:34;21.30;99.90
23744;DHT22;12052;53.478;10.182;2022-08-30T13:06:04;21.30;99.90
23744;DHT22;12052;53.478;10.182;2022-08-30T13:11:31;21.10;99.90
23744;DHT22;12052;53.478;10.182;2022-08-30T13:17:20;21.20;99.90
23744;DHT22;12052;53.478;10.182;2022-08-30T13:22:36;21.20;99.90
23744;DHT22;12052;53.478;10.182;2022-08-30T13:25:02;21.20;99.90
23744;DHT22;12052;53.478;10.182;2022-08-30T13:27:29;21.30;99.90
23744;DHT22;12052;53.478;10.182;2022-08-30T13:29:55;21.40;99.90
23744;DHT22;12052;53.478;10.182;2022-08-30T13:32:22;21.50;99.90
23744;DHT22;12052;53.478;10.182;2022-08-30T13:34:48;21.70;99.90
23744;DHT22;12052;53.478;10.182;2022-08-30T13:37:24;21.70;99.90
23744;DHT22;12052;53.478;10.182;2022-08-30T13:39:50;21.80;99.90
23744;DHT22;12052;53.478;10.182;2022-08-30T13:42:15;21.90;99.90
23744;DHT22;12052;53.478;10.182;2022-08-30T13:44:41;21.90;99.90
23744;DHT22;12052;53.478;10.182;2022-08-30T13:47:08;22.00;99.90
23744;DHT22;12052;53.478;10.182;2022-08-30T13:49:35;22.10;99.90
23744;DHT22;12052;53.478;10.182;2022-08-30T13:52:02;22.00;99.90
23744;DHT22;12052;53.478;10.182;2022-08-30T13:54:28;22.10;99.90
23744;DHT22;12052;53.478;10.182;2022-08-30T13:56:54;22.10;99.90
23744;DHT22;12052;53.478;10.182;2022-08-30T13:59:21;22.10;99.90
23744;DHT22;12052;53.478;10.182;2022-08-30T14:01:48;22.10;99.90
23744;DHT22;12052;53.478;10.182;2022-08-30T14:04:13;22.10;99.90
23744;DHT22;12052;53.478;10.182;2022-08-30T14:06:40;22.10;99.90
23744;DHT22;12052;53.478;10.182;2022-08-30T14:09:05;22.20;99.90
23744;DHT22;12052;53.478;10.182;2022-08-30T14:11:33;22.30;99.90
23744;DHT22;12052;53.478;10.182;2022-08-30T14:13:59;22.30;99.90
23744;DHT22;12052;53.478;10.182;2022-08-30T14:16:25;22.40;99.90
23744;DHT22;12052;53.478;10.182;2022-08-30T14:18:50;22.40;99.90
23744;DHT22;12052;53.478;10.182;2022-08-30T14:21:16;22.50;99.90
23744;DHT22;12052;53.478;10.182;2022-08-30T14:23:43;22.40;99.90
23744;DHT22;12052;53.478;10.182;2022-08-30T14:26:12;22.30;99.90
23744;DHT22;12052;53.478;10.182;2022-08-30T14:28:39;22.20;99.90
23744;DHT22;12052;53.478;10.182;2022-08-30T14:31:04;22.10;99.90
23744;DHT22;12052;53.478;10.182;2022-08-30T14:33:30;22.10;99.90
23744;DHT22;12052;53.478;10.182;2022-08-30T14:35:55;22.00;99.90
23744;DHT22;12052;53.478;10.182;2022-08-30T14:38:21;21.90;99.90
23744;DHT22;12052;53.478;10.182;2022-08-30T14:40:47;21.80;99.90
23744;DHT22;12052;53.478;10.182;2022-08-30T14:43:12;21.80;99.90
23744;DHT22;12052;53.478;10.182;2022-08-30T14:45:38;21.50;99.90
23744;DHT22;12052;53.478;10.182;2022-08-30T14:48:03;21.40;99.90
23744;DHT22;12052;53.478;10.182;2022-08-30T14:50:36;21.30;99.90
23744;DHT22;12052;53.478;10.182;2022-08-30T14:53:03;21.20;99.90
23744;DHT22;12052;53.478;10.182;2022-08-30T14:55:29;21.10;99.90
23744;DHT22;12052;53.478;10.182;2022-08-30T14:57:57;21.00;99.90
23744;DHT22;12052;53.478;10.182;2022-08-30T15:00:22;20.90;99.90
23744;DHT22;12052;53.478;10.182;2022-08-30T15:02:49;21.00;99.90
23744;DHT22;12052;53.478;10.182;2022-08-30T15:05:15;21.00;99.90
23744;DHT22;12052;53.478;10.182;2022-08-30T15:07:41;21.10;99.90
23744;DHT22;12052;53.478;10.182;2022-08-30T15:10:07;21.00;99.90
23744;DHT22;12052;53.478;10.182;2022-08-30T15:12:33;21.00;99.90
23744;DHT22;12052;53.478;10.182;2022-08-30T15:14:59;21.00;99.90
23744;DHT22;12052;53.478;10.182;2022-08-30T15:17:25;21.10;99.90
23744;DHT22;12052;53.478;10.182;2022-08-30T15:19:50;21.10;99.90
23744;DHT22;12052;53.478;10.182;2022-08-30T15:22:16;21.10;99.90
23744;DHT22;12052;53.478;10.182;2022-08-30T15:24:42;21.10;99.90
23744;DHT22;12052;53.478;10.182;2022-08-30T15:27:08;21.00;99.90
23744;DHT22;12052;53.478;10.182;2022-08-30T15:29:34;21.00;99.90
23744;DHT22;12052;53.478;10.182;2022-08-30T15:32:01;21.00;99.90
23744;DHT22;12052;53.478;10.182;2022-08-30T15:34:28;21.00;99.90
23744;DHT22;12052;53.478;10.182;2022-08-30T15:36:55;21.00;99.90
23744;DHT22;12052;53.478;10.182;2022-08-30T15:39:22;20.90;99.90
23744;DHT22;12052;53.478;10.182;2022-08-30T15:41:48;20.90;99.90
23744;DHT22;12052;53.478;10.182;2022-08-30T15:44:15;20.90;99.90
23744;DHT22;12052;53.478;10.182;2022-08-30T15:46:42;20.90;99.90
23744;DHT22;12052;53.478;10.182;2022-08-30T15:49:18;20.90;99.90
23744;DHT22;12052;53.478;10.182;2022-08-30T15:51:45;21.00;99.90
23744;DHT22;12052;53.478;10.182;2022-08-30T15:54:14;21.10;99.90
23744;DHT22;12052;53.478;10.182;2022-08-30T15:56:40;21.10;99.90
23744;DHT22;12052;53.478;10.182;2022-08-30T15:59:07;21.10;99.90
23744;DHT22;12052;53.478;10.182;2022-08-30T16:01:33;21.10;99.90
23744;DHT22;12052;53.478;10.182;2022-08-30T16:03:59;21.10;99.90
23744;DHT22;12052;53.478;10.182;2022-08-30T16:06:27;21.00;99.90
23744;DHT22;12052;53.478;10.182;2022-08-30T16:08:53;20.80;99.90
23744;DHT22;12052;53.478;10.182;2022-08-30T16:11:20;20.80;99.90
23744;DHT22;12052;53.478;10.182;2022-08-30T16:13:51;20.70;99.90
23744;DHT22;12052;53.478;10.182;2022-08-30T16:16:17;20.70;99.90
23744;DHT22;12052;53.478;10.182;2022-08-30T16:18:43;20.70;99.90
23744;DHT22;12052;53.478;10.182;2022-08-30T16:21:15;20.70;99.90
23744;DHT22;12052;53.478;10.182;2022-08-30T16:23:42;20.60;99.90
23744;DHT22;12052;53.478;10.182;2022-08-30T16:26:09;20.60;99.90
23744;DHT22;12052;53.478;10.182;2022-08-30T16:28:36;20.60;99.90
23744;DHT22;12052;53.478;10.182;2022-08-30T16:31:04;20.50;99.90
23744;DHT22;12052;53.478;10.182;2022-08-30T16:33:30;20.40;99.90
23744;DHT22;12052;53.478;10.182;2022-08-30T16:35:56;20.40;99.90
23744;DHT22;12052;53.478;10.182;2022-08-30T16:38:23;20.40;99.90
23744;DHT22;12052;53.478;10.182;2022-08-30T16:40:49;20.30;99.90
23744;DHT22;12052;53.478;10.182;2022-08-30T16:43:15;20.20;99.90
23744;DHT22;12052;53.478;10.182;2022-08-30T16:45:42;20.20;99.90
23744;DHT22;12052;53.478;10.182;2022-08-30T16:48:08;20.20;99.90
23744;DHT22;12052;53.478;10.182;2022-08-30T16:50:36;20.10;99.90
23744;DHT22;12052;53.478;10.182;2022-08-30T16:53:02;20.10;99.90
23744;DHT22;12052;53.478;10.182;2022-08-30T16:55:27;20.00;99.90
23744;DHT22;12052;53.478;10.182;2022-08-30T16:57:53;19.90;99.90
23744;DHT22;12052;53.478;10.182;2022-08-30T17:00:18;19.90;99.90
23744;DHT22;12052;53.478;10.182;2022-08-30T17:02:44;19.80;99.90
23744;DHT22;12052;53.478;10.182;2022-08-30T17:05:10;19.80;99.90